createdAt,value
2023-05-10T00:01:38.829Z,95699.22
2023-05-10T00:04:28.348Z,95694.03
2023-05-10T00:07:13.963Z,95699.34
2023-05-10T00:09:59.439Z,95697.69
2023-05-10T00:12:44.580Z,95695.97
2023-05-10T00:15:31.410Z,95692.47
2023-05-10T00:18:16.637Z,95689.94
2023-05-10T00:21:01.843Z,95691.78
2023-05-10T00:23:47.043Z,95683.75
2023-05-10T00:26:32.137Z,95685.59
2023-05-10T00:29:17.337Z,95685.59
2023-05-10T00:32:02.610Z,95685.59
2023-05-10T00:34:47.717Z,95680.38
2023-05-10T00:37:33.387Z,95683.06
2023-05-10T00:40:18.700Z,95684.84
2023-05-10T00:43:08.207Z,95676.84
2023-05-10T00:45:53.722Z,95669.84
2023-05-10T00:48:38.705Z,95682.19
2023-05-10T00:51:30.167Z,95680.25
2023-05-10T00:54:16.075Z,95670.56
2023-05-10T00:57:01.122Z,95661.25
2023-05-10T00:59:46.809Z,95666.47
2023-05-10T01:02:32.063Z,95672.63
2023-05-10T01:05:17.357Z,95665.47
2023-05-10T01:08:03.590Z,95661.25
2023-05-10T01:10:50.175Z,95664.63
2023-05-10T01:13:38.294Z,95655.94
2023-05-10T01:16:24.871Z,95664.94
2023-05-10T01:19:21.220Z,95658.59
2023-05-10T01:22:12.327Z,95659.59
2023-05-10T01:24:57.219Z,95664.22
2023-05-10T01:28:14.650Z,95658.88
2023-05-10T01:30:59.575Z,95660.56
2023-05-10T01:33:54.755Z,95653.81
2023-05-10T01:36:45.971Z,95657.19
2023-05-10T01:39:40.655Z,95659.84
2023-05-10T01:42:28.404Z,95664.34
2023-05-10T01:45:40.452Z,95658.44
2023-05-10T01:48:28.045Z,95662.50
2023-05-10T01:51:14.310Z,95663.91
2023-05-10T01:54:03.130Z,95661.22
2023-05-10T01:56:59.660Z,95665.44
2023-05-10T01:59:46.505Z,95662.94
2023-05-10T02:02:38.052Z,95672.47
2023-05-10T02:05:23.896Z,95671.63
2023-05-10T02:08:10.672Z,95669.94
2023-05-10T02:10:57.593Z,95676.09
2023-05-10T02:13:44.446Z,95672.59
2023-05-10T02:16:31.859Z,95662.34
2023-05-10T02:19:19.133Z,95676.25
2023-05-10T02:22:04.406Z,95666.97
2023-05-10T02:24:51.729Z,95674.56
2023-05-10T02:27:38.066Z,95677.22
2023-05-10T02:30:23.997Z,95671.06
2023-05-10T02:33:09.103Z,95673.72
2023-05-10T02:35:54.127Z,95674.56
2023-05-10T02:38:39.760Z,95672.03
2023-05-10T02:41:25.625Z,95670.22
2023-05-10T02:44:11.772Z,95667.81
2023-05-10T02:46:58.028Z,95666.69
2023-05-10T02:49:43.958Z,95669.75
2023-05-10T02:52:32.137Z,95674.69
2023-05-10T02:55:17.795Z,95674.69
2023-05-10T02:58:03.792Z,95671.19
2023-05-10T03:00:49.232Z,95671.31
2023-05-10T03:03:34.617Z,95667.81
2023-05-10T03:06:19.779Z,95672.31
2023-05-10T03:09:05.206Z,95670.03
2023-05-10T03:11:50.446Z,95669.63
2023-05-10T03:15:05.291Z,95678.34
2023-05-10T03:17:57.029Z,95680.88
2023-05-10T03:20:44.338Z,95675.69
2023-05-10T03:23:42.306Z,95674.97
2023-05-10T03:26:29.454Z,95670.03
2023-05-10T03:29:27.322Z,95680.44
2023-05-10T03:32:12.501Z,95675.09
2023-05-10T03:34:57.669Z,95682.28
2023-05-10T03:37:44.277Z,95686.72
2023-05-10T03:40:33.030Z,95686.72
2023-05-10T03:43:18.211Z,95683.22
2023-05-10T03:46:04.047Z,95687.72
2023-05-10T03:48:49.396Z,95696.31
2023-05-10T03:51:34.829Z,95692.78
2023-05-10T03:54:20.133Z,95699.09
2023-05-10T03:57:05.636Z,95687.72
2023-05-10T03:59:51.519Z,95699.34
2023-05-10T04:02:36.885Z,95700.31
2023-05-10T04:05:22.440Z,95697.66
2023-05-10T04:08:10.806Z,95690.91
2023-05-10T04:10:55.980Z,95696.81
2023-05-10T04:13:41.637Z,95700.31
2023-05-10T04:16:26.655Z,95698.63
2023-05-10T04:19:12.496Z,95702.41
2023-05-10T04:21:57.611Z,95701.28
2023-05-10T04:24:42.971Z,95716.22
2023-05-10T04:27:28.112Z,95712.69
2023-05-10T04:30:13.311Z,95715.50
2023-05-10T04:32:59.172Z,95714.63
2023-05-10T04:35:45.582Z,95726.91
2023-05-10T04:38:30.782Z,95721.06
2023-05-10T04:41:16.255Z,95723.63
2023-05-10T04:44:01.227Z,95719.13
2023-05-10T04:46:47.198Z,95729.06
2023-05-10T04:49:32.586Z,95732.56
2023-05-10T04:52:18.849Z,95748.72
2023-05-10T04:55:04.269Z,95761.19
2023-05-10T04:57:49.296Z,95733.09
2023-05-10T05:00:34.594Z,95739.03
2023-05-10T05:03:20.089Z,95767.53
2023-05-10T05:06:05.825Z,95758.81
2023-05-10T05:08:50.904Z,95758.94
2023-05-10T05:11:36.106Z,95759.91
2023-05-10T05:14:26.068Z,95765.94
2023-05-10T05:17:11.369Z,95766.81
2023-05-10T05:19:56.797Z,95768.75
2023-05-10T05:22:42.216Z,95773.22
2023-05-10T05:25:27.130Z,95777.72
2023-05-10T05:28:12.181Z,95776.75
2023-05-10T05:30:57.235Z,95791.91
2023-05-10T05:33:42.334Z,95783.06
2023-05-10T05:36:27.817Z,95788.97
2023-05-10T05:39:12.771Z,95792.75
2023-05-10T05:41:57.664Z,95795.56
2023-05-10T05:44:42.497Z,95797.38
2023-05-10T05:47:27.729Z,95798.22
2023-05-10T05:50:12.958Z,95801.84
2023-05-10T05:52:58.318Z,95803.56
2023-05-10T05:55:56.972Z,95818.19
2023-05-10T05:58:42.427Z,95829.69
2023-05-10T06:01:27.556Z,95839.13
2023-05-10T06:04:13.618Z,95845.19
2023-05-10T06:06:58.658Z,95845.09
2023-05-10T06:09:43.651Z,95842.91
2023-05-10T06:12:29.105Z,95850.41
2023-05-10T06:15:14.655Z,95853.81
2023-05-10T06:18:00.236Z,95823.19
2023-05-10T06:20:45.265Z,95854.16
2023-05-10T06:23:30.207Z,95856.84
2023-05-10T06:26:15.488Z,95855.13
2023-05-10T06:29:00.704Z,95872.13
2023-05-10T06:31:45.786Z,95865.81
2023-05-10T06:34:31.167Z,95869.31
2023-05-10T06:37:16.086Z,95868.59
2023-05-10T06:40:01.515Z,95870.41
2023-05-10T06:42:47.501Z,95870.28
2023-05-10T06:45:32.437Z,95875.75
2023-05-10T06:48:17.779Z,95875.75
2023-05-10T06:51:03.125Z,95884.47
2023-05-10T06:53:48.429Z,95883.63
2023-05-10T06:56:33.361Z,95890.63
2023-05-10T06:59:20.134Z,95880.13
2023-05-10T07:02:06.082Z,95879.41
2023-05-10T07:04:52.787Z,95870.09
2023-05-10T07:07:38.133Z,95875.44
2023-05-10T07:10:23.211Z,95891.88
2023-05-10T07:13:08.432Z,95898.06
2023-05-10T07:15:53.408Z,95904.13
2023-05-10T07:18:38.920Z,95896.13
2023-05-10T07:21:29.445Z,95901.09
2023-05-10T07:24:14.714Z,95917.56
2023-05-10T07:27:00.189Z,95916.34
2023-05-10T07:29:45.773Z,95911.56
2023-05-10T07:32:31.630Z,95905.41
2023-05-10T07:35:16.810Z,95902.00
2023-05-10T07:38:02.118Z,95904.69
2023-05-10T07:40:47.288Z,95906.22
2023-05-10T07:43:32.292Z,95900.06
2023-05-10T07:46:17.324Z,95902.84
2023-05-10T07:49:02.397Z,95896.69
2023-05-10T07:51:47.221Z,95901.06
2023-05-10T07:54:32.794Z,95895.25
2023-05-10T07:57:18.903Z,95901.28
2023-05-10T08:00:04.456Z,95897.91
2023-05-10T08:02:58.589Z,95900.59
2023-05-10T08:05:43.610Z,95903.25
2023-05-10T08:08:28.547Z,95898.75
2023-05-10T08:11:13.697Z,95905.78
2023-05-10T08:14:00.021Z,95908.47
2023-05-10T08:16:45.183Z,95916.47
2023-05-10T08:19:30.560Z,95916.47
2023-05-10T08:22:15.535Z,95912.81
2023-05-10T08:25:00.578Z,95918.72
2023-05-10T08:27:45.711Z,95908.06
2023-05-10T08:30:30.966Z,95913.41
2023-05-10T08:33:16.164Z,95915.22
2023-05-10T08:36:01.347Z,95913.53
2023-05-10T08:38:46.590Z,95926.75
2023-05-10T08:41:34.543Z,95923.72
2023-05-10T08:44:20.359Z,95914.38
2023-05-10T08:47:07.952Z,95919.56
2023-05-10T08:49:53.530Z,95906.75
2023-05-10T08:52:41.036Z,95921.28
2023-05-10T08:55:26.797Z,95930.25
2023-05-10T08:58:11.811Z,95924.06
2023-05-10T09:00:57.069Z,95925.78
2023-05-10T09:03:42.295Z,95933.66
2023-05-10T09:06:27.425Z,95930.13
2023-05-10T09:09:13.144Z,95932.53
2023-05-10T09:11:58.111Z,95932.53
2023-05-10T09:14:44.655Z,95933.25
2023-05-10T09:17:30.923Z,95933.25
2023-05-10T09:20:18.226Z,95928.06
2023-05-10T09:23:03.828Z,95928.88
2023-05-10T09:25:49.032Z,95932.53
2023-05-10T09:28:34.853Z,95932.53
2023-05-10T09:31:20.033Z,95935.94
2023-05-10T09:34:05.043Z,95935.81
2023-05-10T09:36:58.360Z,95939.31
2023-05-10T09:39:43.793Z,95926.94
2023-05-10T09:42:29.060Z,95925.97
2023-05-10T09:45:14.210Z,95931.06
2023-05-10T09:48:00.042Z,95932.88
2023-05-10T09:50:45.281Z,95940.75
2023-05-10T09:53:30.447Z,95946.91
2023-05-10T09:56:33.697Z,95938.78
2023-05-10T09:59:19.330Z,95942.47
2023-05-10T10:02:04.621Z,95925.72
2023-05-10T10:04:50.708Z,95929.34
2023-05-10T10:07:36.763Z,95929.59
2023-05-10T10:10:22.100Z,95921.34
2023-05-10T10:13:07.231Z,95923.19
2023-05-10T10:15:54.404Z,95925.72
2023-05-10T10:18:39.803Z,95939.78
2023-05-10T10:21:25.444Z,95927.41
2023-05-10T10:24:10.451Z,95931.78
2023-05-10T10:26:58.877Z,95931.50
2023-05-10T10:29:59.406Z,95924.75
2023-05-10T10:33:07.952Z,95941.22
2023-05-10T10:36:03.709Z,95941.22
2023-05-10T10:38:48.973Z,95935.88
2023-05-10T10:41:35.133Z,95941.06
2023-05-10T10:44:23.365Z,95938.28
2023-05-10T10:47:34.005Z,95946.28
2023-05-10T10:50:19.219Z,95942.78
2023-05-10T10:53:11.257Z,95945.44
2023-05-10T10:56:08.428Z,95945.19
2023-05-10T10:58:54.570Z,95940.81
2023-05-10T11:01:43.533Z,95928.72
2023-05-10T11:04:28.884Z,95930.38
2023-05-10T11:07:18.795Z,95916.50
2023-05-10T11:10:06.210Z,95934.66
2023-05-10T11:12:54.638Z,95927.59
2023-05-10T11:15:40.809Z,95931.97
2023-05-10T11:18:30.820Z,95939.00
2023-05-10T11:21:16.251Z,95930.16
2023-05-10T11:24:01.953Z,95938.88
2023-05-10T11:26:48.166Z,95936.78
2023-05-10T11:29:33.308Z,95933.13
2023-05-10T11:32:18.486Z,95932.28
2023-05-10T11:35:13.523Z,95935.78
2023-05-10T11:37:58.400Z,95931.44
2023-05-10T11:40:44.384Z,95938.47
2023-05-10T11:43:31.476Z,95942.84
2023-05-10T11:46:21.380Z,95944.69
2023-05-10T11:49:08.116Z,95942.84
2023-05-10T11:51:53.018Z,95957.03
2023-05-10T11:54:38.198Z,95964.06
2023-05-10T11:57:27.824Z,95964.66
2023-05-10T12:00:16.411Z,95963.78
2023-05-10T12:03:02.289Z,95971.81
2023-05-10T12:05:47.528Z,95968.28
2023-05-10T12:08:32.588Z,95979.09
2023-05-10T12:11:18.222Z,95976.69
2023-05-10T12:14:05.827Z,95986.13
2023-05-10T12:16:51.766Z,95986.97
2023-05-10T12:19:40.883Z,95974.03
2023-05-10T12:22:26.536Z,95986.13
2023-05-10T12:25:11.693Z,95979.81
2023-05-10T12:27:58.777Z,95983.19
2023-05-10T12:30:44.924Z,95969.53
2023-05-10T12:33:44.518Z,95983.34
2023-05-10T12:36:29.960Z,95974.47
2023-05-10T12:39:15.370Z,95975.34
2023-05-10T12:42:00.816Z,95975.47
2023-05-10T12:44:45.798Z,95982.34
2023-05-10T12:47:31.167Z,95983.19
2023-05-10T12:50:16.404Z,95990.97
2023-05-10T12:53:01.519Z,95980.41
2023-05-10T12:55:46.916Z,95992.66
2023-05-10T12:58:36.104Z,95983.06
2023-05-10T13:01:21.783Z,95973.50
2023-05-10T13:04:06.843Z,95980.69
2023-05-10T13:06:52.525Z,95979.56
2023-05-10T13:09:38.035Z,95975.59
2023-05-10T13:12:23.061Z,95978.00
2023-05-10T13:15:08.629Z,95973.63
2023-05-10T13:17:54.671Z,95980.69
2023-05-10T13:20:39.875Z,95976.31
2023-05-10T13:23:25.264Z,95979.81
2023-05-10T13:26:10.571Z,95982.63
2023-05-10T13:28:56.619Z,95989.94
2023-05-10T13:31:41.794Z,95986.13
2023-05-10T13:34:27.237Z,95989.66
2023-05-10T13:37:12.672Z,95990.38
2023-05-10T13:39:57.733Z,95995.00
2023-05-10T13:42:43.112Z,95992.19
2023-05-10T13:45:28.241Z,95986.97
2023-05-10T13:48:13.543Z,95986.97
2023-05-10T13:50:58.976Z,95988.69
2023-05-10T13:53:43.826Z,95991.34
2023-05-10T13:56:29.157Z,95993.03
2023-05-10T13:59:15.102Z,95993.03
2023-05-10T14:02:01.587Z,96005.28
2023-05-10T14:04:46.915Z,95992.91
2023-05-10T14:07:32.017Z,95996.41
2023-05-10T14:10:17.333Z,96002.47
2023-05-10T14:13:02.329Z,95994.47
2023-05-10T14:15:47.786Z,95999.69
2023-05-10T14:18:32.910Z,95984.66
2023-05-10T14:21:19.260Z,95984.78
2023-05-10T14:24:05.496Z,95984.91
2023-05-10T14:26:54.543Z,95984.91
2023-05-10T14:29:39.673Z,95986.59
2023-05-10T14:32:25.544Z,95984.31
2023-05-10T14:35:12.954Z,95991.91
2023-05-10T14:37:58.743Z,95979.69
2023-05-10T14:40:44.005Z,95990.13
2023-05-10T14:43:29.121Z,95992.78
2023-05-10T14:46:14.560Z,95992.50
2023-05-10T14:48:59.776Z,95998.56
2023-05-10T14:51:45.888Z,96000.41
2023-05-10T14:54:31.062Z,96000.41
2023-05-10T14:57:16.135Z,95993.38
2023-05-10T15:00:01.161Z,95999.56
2023-05-10T15:02:47.172Z,95996.06
2023-05-10T15:05:32.850Z,95994.34
2023-05-10T15:08:18.906Z,96003.91
2023-05-10T15:11:04.051Z,96004.06
2023-05-10T15:13:49.193Z,96005.75
2023-05-10T15:16:35.976Z,96011.78
2023-05-10T15:19:21.586Z,96022.34
2023-05-10T15:22:06.875Z,96020.63
2023-05-10T15:24:52.083Z,96006.00
2023-05-10T15:27:37.209Z,96021.50
2023-05-10T15:30:22.418Z,96021.50
2023-05-10T15:33:08.602Z,96024.19
2023-05-10T15:35:54.547Z,96029.66
2023-05-10T15:38:39.638Z,96017.25
2023-05-10T15:41:25.691Z,96029.66
2023-05-10T15:44:10.902Z,96021.63
2023-05-10T15:46:56.814Z,96035.81
2023-05-10T15:49:42.111Z,96034.97
2023-05-10T15:52:27.210Z,96044.66
2023-05-10T15:55:15.492Z,96047.34
2023-05-10T15:58:00.913Z,96045.38
2023-05-10T16:00:46.126Z,96057.91
2023-05-10T16:03:32.165Z,96052.69
2023-05-10T16:06:17.684Z,96043.38
2023-05-10T16:09:02.827Z,96045.19
2023-05-10T16:11:47.803Z,96036.84
2023-05-10T16:14:32.999Z,96033.50
2023-05-10T16:17:19.190Z,96028.19
2023-05-10T16:20:05.200Z,96033.44
2023-05-10T16:22:50.668Z,96023.53
2023-05-10T16:25:35.710Z,96025.81
2023-05-10T16:28:21.364Z,96028.88
2023-05-10T16:31:06.781Z,96026.72
2023-05-10T16:33:51.970Z,96019.06
2023-05-10T16:36:37.444Z,96042.22
2023-05-10T16:39:22.722Z,96034.47
2023-05-10T16:42:07.708Z,96027.56
2023-05-10T16:44:54.146Z,96039.22
2023-05-10T16:47:40.290Z,96035.06
2023-05-10T16:50:25.476Z,96039.69
2023-05-10T16:53:11.632Z,96042.50
2023-05-10T16:55:57.004Z,96044.16
2023-05-10T16:58:41.831Z,96055.81
2023-05-10T17:01:27.290Z,96056.06
2023-05-10T17:04:14.073Z,96056.16
2023-05-10T17:06:59.211Z,96059.81
2023-05-10T17:09:44.982Z,96060.91
2023-05-10T17:12:29.748Z,96061.03
2023-05-10T17:15:16.511Z,96068.66
2023-05-10T17:18:02.284Z,96069.50
2023-05-10T17:20:47.396Z,96062.00
2023-05-10T17:23:33.726Z,96076.78
2023-05-10T17:26:18.824Z,96065.50
2023-05-10T17:29:04.208Z,96075.44
2023-05-10T17:31:49.654Z,96070.00
2023-05-10T17:34:38.905Z,96073.03
2023-05-10T17:37:23.798Z,96069.63
2023-05-10T17:40:10.045Z,96068.19
2023-05-10T17:42:55.869Z,96074.34
2023-05-10T17:45:41.396Z,96078.69
2023-05-10T17:48:26.627Z,96071.19
2023-05-10T17:51:12.592Z,96065.13
2023-05-10T17:53:57.755Z,96068.91
2023-05-10T17:56:42.797Z,96074.47
2023-05-10T17:59:28.350Z,96059.69
2023-05-10T18:02:13.478Z,96058.59
2023-05-10T18:05:01.227Z,96063.91
2023-05-10T18:07:47.139Z,96063.19
2023-05-10T18:10:32.713Z,96066.00
2023-05-10T18:13:17.974Z,96056.38
2023-05-10T18:16:05.592Z,96052.25
2023-05-10T18:18:50.676Z,96058.19
2023-05-10T18:21:35.894Z,96061.09
2023-05-10T18:24:37.654Z,96060.97
2023-05-10T18:27:23.432Z,96067.41
2023-05-10T18:30:10.090Z,96057.09
2023-05-10T18:32:55.580Z,96064.97
2023-05-10T18:35:41.183Z,96071.38
2023-05-10T18:38:26.390Z,96070.53
2023-05-10T18:41:13.405Z,96090.13
2023-05-10T18:43:58.573Z,96068.00
2023-05-10T18:46:43.994Z,96064.59
2023-05-10T18:49:29.337Z,96074.41
2023-05-10T18:52:16.031Z,96073.44
2023-05-10T18:55:01.211Z,96076.09
2023-05-10T18:57:46.586Z,96070.88
2023-05-10T19:00:31.876Z,96068.22
2023-05-10T19:03:17.191Z,96075.34
2023-05-10T19:06:02.146Z,96088.56
2023-05-10T19:08:47.282Z,96102.84
2023-05-10T19:11:34.315Z,96100.16
2023-05-10T19:14:19.957Z,96102.72
2023-05-10T19:17:07.005Z,96101.88
2023-05-10T19:19:52.303Z,96100.31
2023-05-10T19:22:51.496Z,96109.16
2023-05-10T19:25:46.817Z,96104.03
2023-05-10T19:28:32.244Z,96107.44
2023-05-10T19:31:17.334Z,96111.91
2023-05-10T19:34:04.172Z,96109.25
2023-05-10T19:36:49.334Z,96131.53
2023-05-10T19:39:34.641Z,96129.84
2023-05-10T19:42:20.597Z,96137.59
2023-05-10T19:45:06.356Z,96129.09
2023-05-10T19:47:51.599Z,96141.22
2023-05-10T19:50:38.061Z,96143.88
2023-05-10T19:53:23.202Z,96140.38
2023-05-10T19:56:08.748Z,96142.19
2023-05-10T19:58:53.762Z,96146.44
2023-05-10T20:01:39.131Z,96145.59
2023-05-10T20:04:24.470Z,96140.38
2023-05-10T20:07:10.866Z,96140.13
2023-05-10T20:09:55.873Z,96132.72
2023-05-10T20:12:40.744Z,96134.06
2023-05-10T20:15:27.252Z,96142.19
2023-05-10T20:18:13.082Z,96141.09
2023-05-10T20:20:59.633Z,96143.03
2023-05-10T20:23:44.779Z,96133.47
2023-05-10T20:26:31.251Z,96141.47
2023-05-10T20:29:16.325Z,96152.13
2023-05-10T20:32:01.435Z,96149.47
2023-05-10T20:34:46.312Z,96130.53
2023-05-10T20:37:31.476Z,96140.50
2023-05-10T20:40:17.083Z,96138.81
2023-05-10T20:43:02.845Z,96142.19
2023-05-10T20:45:48.675Z,96133.47
2023-05-10T20:48:34.225Z,96129.31
2023-05-10T20:51:19.440Z,96130.91
2023-05-10T20:54:04.812Z,96136.13
2023-05-10T20:56:51.272Z,96123.41
2023-05-10T20:59:36.356Z,96131.97
2023-05-10T21:02:21.556Z,96126.81
2023-05-10T21:05:07.064Z,96121.47
2023-05-10T21:07:54.100Z,96123.25
2023-05-10T21:10:39.359Z,96116.25
2023-05-10T21:13:24.584Z,96114.44
2023-05-10T21:16:10.100Z,96104.75
2023-05-10T21:18:55.441Z,96113.69
2023-05-10T21:21:40.282Z,96120.59
2023-05-10T21:24:25.714Z,96119.88
2023-05-10T21:27:11.638Z,96110.19
2023-05-10T21:29:56.964Z,96116.47
2023-05-10T21:32:42.427Z,96113.81
2023-05-10T21:35:28.152Z,96107.03
2023-05-10T21:38:13.590Z,96100.97
2023-05-10T21:40:58.744Z,96097.34
2023-05-10T21:43:44.098Z,96098.19
2023-05-10T21:46:29.242Z,96093.09
2023-05-10T21:49:14.399Z,96098.19
2023-05-10T21:51:59.349Z,96100.03
2023-05-10T21:54:44.287Z,96098.31
2023-05-10T21:57:29.647Z,96093.09
2023-05-10T22:00:16.272Z,96092.13
2023-05-10T22:03:01.813Z,96100.03
2023-05-10T22:05:46.896Z,96095.66
2023-05-10T22:08:32.233Z,96093.22
2023-05-10T22:11:17.666Z,96091.16
2023-05-10T22:14:02.990Z,96099.88
2023-05-10T22:16:48.210Z,96088.75
2023-05-10T22:19:33.240Z,96086.94
2023-05-10T22:22:18.190Z,96093.97
2023-05-10T22:25:05.000Z,96097.56
2023-05-10T22:27:50.207Z,96088.75
2023-05-10T22:30:35.430Z,96094.06
2023-05-10T22:33:21.125Z,96091.41
2023-05-10T22:36:06.615Z,96094.19
2023-05-10T22:38:52.136Z,96099.16
2023-05-10T22:41:37.283Z,96094.91
2023-05-10T22:44:22.267Z,96095.91
2023-05-10T22:47:08.849Z,96097.81
2023-05-10T22:49:55.187Z,96098.66
2023-05-10T22:52:40.620Z,96089.06
2023-05-10T22:55:25.916Z,96093.44
2023-05-10T22:58:11.209Z,96083.16
2023-05-10T23:00:56.343Z,96084.94
2023-05-10T23:03:41.601Z,96089.06
2023-05-10T23:06:28.181Z,96088.22
2023-05-10T23:09:13.526Z,96084.72
2023-05-10T23:11:58.758Z,96096.22
2023-05-10T23:14:46.268Z,96096.13
2023-05-10T23:17:31.346Z,96096.13
2023-05-10T23:20:17.112Z,96093.56
2023-05-10T23:23:02.628Z,96066.41
2023-05-10T23:25:48.212Z,96099.88
2023-05-10T23:28:33.300Z,96106.75
2023-05-10T23:31:18.517Z,96100.59
2023-05-10T23:34:03.524Z,96105.81
2023-05-10T23:36:48.722Z,96103.25
2023-05-10T23:39:33.967Z,96098.16
2023-05-10T23:42:19.075Z,96098.16
2023-05-10T23:45:04.596Z,96099.13
2023-05-10T23:47:49.935Z,96096.47
2023-05-10T23:50:37.064Z,96095.59
2023-05-10T23:53:22.407Z,96089.78
2023-05-10T23:56:07.753Z,96088.59
2023-05-10T23:58:53.142Z,96080.72
